Bookmark and Share
Track history (hours):
 

Berta

Last reported at 2014-Apr-23 06:28 UTC. Time now 2014-Apr-23 07:07 UTC.
Position N 53°32' E 009°58'.

Length 107 m; draft 6.4 m.

Type: Cargo ship. MMSI: 304586000.

NotesDate/timePositionNaut miles runAvg speedWind from/ knotsBaromVisibWave heightAir tempDewpointWater temp
2014-Apr-23 06:28N 53°32' E 009°58'0 0.0
2014-Apr-23 05:28N 53°32' E 009°58'0 0.0
2014-Apr-23 04:28N 53°32' E 009°58'0 0.0
2014-Apr-23 03:22N 53°32' E 009°58'0 0.0
2014-Apr-23 02:28N 53°32' E 009°58'0 0.0
2014-Apr-23 01:28N 53°32' E 009°58'0 0.0
2014-Apr-23 00:28N 53°32' E 009°58'0 0.0
2014-Apr-22 23:28N 53°32' E 009°58'0 0.0
2014-Apr-22 22:28N 53°32' E 009°58'0 0.0
2014-Apr-22 21:31N 53°32' E 009°58'0 0.0
2014-Apr-22 20:28N 53°32' E 009°58'0 0.0
2014-Apr-22 19:28N 53°32' E 009°58'0 0.0
2014-Apr-22 18:25N 53°32' E 009°58'0 0.0
2014-Apr-22 17:28N 53°32' E 009°58'0 0.0
2014-Apr-22 16:28N 53°32' E 009°58'0 0.0
2014-Apr-22 15:22N 53°32' E 009°58'0 0.0
2014-Apr-22 14:28N 53°32' E 009°58'0 0.0
2014-Apr-22 13:31N 53°32' E 009°58'0 0.0
2014-Apr-22 12:31N 53°32' E 009°58'0 0.0
2014-Apr-22 11:31N 53°32' E 009°58'0 0.0
2014-Apr-22 10:28N 53°32' E 009°58'0 0.0
2014-Apr-22 09:28N 53°32' E 009°58'0 0.0
2014-Apr-22 08:33N 53°32' E 009°58'2 1.8
2014-Apr-22 07:33N 53°32' E 009°55'0 0.0
2014-Apr-22 06:33N 53°32' E 009°55'0 0.0
2014-Apr-22 05:33N 53°32' E 009°55'1 1.3
2014-Apr-22 04:33N 53°32' E 009°53'1111.1
2014-Apr-22 03:34N 53°36' E 009°35'1414.4
2014-Apr-22 02:33N 53°48' E 009°22'1313.0
2014-Apr-22 01:33N 53°51' E 009°01'1212.1
2014-Apr-22 00:34N 53°54' E 008°41'1312.9
2014-Apr-21 23:34N 53°59' E 008°21'1313.2
2014-Apr-21 22:34N 54°01' E 007°59'1312.5
2014-Apr-21 21:33N 54°08' E 007°40'1212.0
2014-Apr-21 20:33N 54°17' E 007°28'1312.7
2014-Apr-21 19:33N 54°29' E 007°21'1312.6
2014-Apr-21 18:33N 54°41' E 007°15'1312.6
2014-Apr-21 17:33N 54°53' E 007°08'1313.0
2014-Apr-21 16:33N 55°06' E 007°01'1313.4
2014-Apr-21 15:33N 55°19' E 006°54'1413.6
2014-Apr-21 14:33N 55°31' E 006°47'234 7.5
2014-Apr-20 07:22N 59°08' E 004°03'20710.4
2014-Apr-19 11:32N 62°27' E 006°01'3 3.4
2014-Apr-19 10:31N 62°28' E 006°08'0 0.0
2014-Apr-19 09:21N 62°28' E 006°08'0 0.0
2014-Apr-19 08:31N 62°28' E 006°08'0 0.0
2014-Apr-19 07:33N 62°28' E 006°08'0 0.0
2014-Apr-19 06:30N 62°28' E 006°08'0 0.1
2014-Apr-19 05:26N 62°28' E 006°08'2 2.2
2014-Apr-19 04:29N 62°27' E 006°05'3 2.8
2014-Apr-19 03:32N 62°27' E 005°59'  
2014-Apr-15 23:33N 55°41' E 006°42'1212.1
2014-Apr-15 22:33N 55°29' E 006°48'1211.7
2014-Apr-15 21:33N 55°18' E 006°56'1111.4
2014-Apr-15 20:33N 55°08' E 007°02'1111.4
2014-Apr-15 19:33N 54°57' E 007°08'1111.3
2014-Apr-15 18:33N 54°46' E 007°13'1111.3
2014-Apr-15 17:33N 54°35' E 007°19'1111.4
2014-Apr-15 16:33N 54°24' E 007°25'1211.7
2014-Apr-15 15:33N 54°13' E 007°29'1212.1
2014-Apr-15 14:33N 54°02' E 007°38'12 6.0
2014-Apr-15 12:34N 53°53' E 007°51'1313.3
2014-Apr-15 11:34N 53°46' E 008°11'1212.2
2014-Apr-15 10:34N 53°38' E 008°27'5 4.5
2014-Apr-15 09:34N 53°35' E 008°32'0 0.0
2014-Apr-15 08:34N 53°35' E 008°32'1 1.4
2014-Apr-15 07:34N 53°36' E 008°30'1110.8
2014-Apr-15 06:34N 53°43' E 008°17'1010.1
2014-Apr-15 05:34N 53°50' E 008°04'19 9.5
2014-Apr-15 03:34N 53°59' E 007°37'9 8.7
2014-Apr-15 02:34N 54°00' E 007°51'8 8.4
2014-Apr-15 01:34N 54°01' E 008°06'1313.4
2014-Apr-15 00:34N 53°59' E 008°28'1212.3
2014-Apr-14 23:34N 53°51' E 008°45'1110.9
2014-Apr-14 22:34N 53°52' E 009°03'10 9.9
2014-Apr-14 21:33N 53°51' E 009°20'1111.4
2014-Apr-14 20:34N 53°41' E 009°30'1111.3
2014-Apr-14 19:33N 53°34' E 009°45'7 7.5
2014-Apr-14 18:34N 53°30' E 009°56'0 0.0
2014-Apr-14 17:33N 53°30' E 009°56'0 0.0
2014-Apr-14 15:30N 53°30' E 009°56'0 0.0
2014-Apr-14 14:30N 53°30' E 009°56'2 0.8
2014-Apr-14 11:31N 53°32' E 009°55'0 0.0
2014-Apr-14 10:31N 53°32' E 009°55'0 0.0
2014-Apr-14 09:31N 53°32' E 009°55'0 0.0
2014-Apr-14 08:31N 53°32' E 009°55'0 0.0
2014-Apr-14 07:32N 53°32' E 009°55'4 4.4
2014-Apr-14 06:33N 53°33' E 009°48'10 9.5
2014-Apr-14 05:34N 53°37' E 009°33'8111.6
2014-Apr-13 22:34N 54°13' E 007°29'1312.5
2014-Apr-13 21:33N 54°24' E 007°19'1312.8
2014-Apr-13 20:34N 54°35' E 007°09'1312.9
2014-Apr-13 19:33N 54°47' E 006°59'1312.9
2014-Apr-13 18:33N 54°58' E 006°49'  

Dump ship's entire track history

sailing weather and tide predictions

Berta — V2BQ6 — position and weather